Time;durP1;ratioP1;P1;durP2;ratioP2;P2;SDS_P1;SDS_P2;PMS_P1;PMS_P2;Temp;Humidity;BMP_temperature;BMP_pressure;BME280_temperature;BME280_humidity;BME280_pressure;Samples;Min_cycle;Max_cycle;Signal;HPM_P1;HPM_P2
2022/03/27 00:01:34;;;;;;;17.73;9.38;;;11.50;70.10;;;;;;4988603;28;20042;-87
2022/03/27 00:03:59;;;;;;;20.17;9.18;;;11.60;70.10;;;;;;4986850;28;21015;-90
2022/03/27 00:06:25;;;;;;;20.65;9.98;;;13.80;72.00;;;;;;5000933;28;20035;-90
2022/03/27 00:08:51;;;;;;;18.95;10.20;;;11.40;70.90;;;;;;4983576;28;20040;-88
2022/03/27 00:11:29;;;;;;;19.70;9.73;;;11.50;70.90;;;;;;4969460;28;20069;-89
2022/03/27 00:14:09;;;;;;;19.10;10.05;;;13.00;71.90;;;;;;4970805;28;20035;-89
2022/03/27 00:16:35;;;;;;;;;;;12.40;72.60;;;;;;4988089;28;20042;-88
2022/03/27 00:19:01;;;;;;;25.38;12.32;;;;;;;;;;4986181;28;19953;-89
2022/03/27 00:21:27;;;;;;;22.83;11.43;;;11.40;71.40;;;;;;4989048;28;20034;-87
2022/03/27 00:23:53;;;;;;;25.02;12.07;;;;;;;;;;4990172;28;20085;-89
2022/03/27 00:26:20;;;;;;;26.55;13.40;;;11.30;72.40;;;;;;4985517;28;20022;-90
2022/03/27 00:28:46;;;;;;;30.88;12.23;;;12.80;73.80;;;;;;4974155;28;20030;-87
2022/03/27 00:31:12;;;;;;;21.67;12.10;;;11.60;73.40;;;;;;4991484;28;20503;-87
2022/03/27 00:33:40;;;;;;;25.65;12.20;;;11.00;73.70;;;;;;4976162;28;20089;-88
2022/03/27 00:36:08;;;;;;;23.52;11.88;;;11.40;74.70;;;;;;4973181;28;20129;-90
2022/03/27 00:38:34;;;;;;;25.40;13.27;;;10.80;74.90;;;;;;4971876;28;20801;-88
2022/03/27 00:41:00;;;;;;;21.50;12.25;;;11.90;77.40;;;;;;4973812;28;20129;-89
2022/03/27 00:43:27;;;;;;;20.25;11.15;;;10.80;75.80;;;;;;4971376;28;20134;-87
2022/03/27 00:45:53;;;;;;;24.70;11.38;;;10.80;77.60;;;;;;4987589;28;20117;-87
2022/03/27 00:48:20;;;;;;;24.33;12.02;;;13.20;78.20;;;;;;4988502;28;20034;-90
2022/03/27 00:50:48;;;;;;;22.20;12.18;;;11.80;78.20;;;;;;4968815;28;20041;-87
2022/03/27 00:53:14;;;;;;;28.52;12.20;;;10.60;78.10;;;;;;4987935;28;20319;-88
2022/03/27 00:55:46;;;;;;;27.13;11.80;;;11.20;79.00;;;;;;4987482;28;20050;-86
2022/03/27 00:58:13;;;;;;;23.95;12.30;;;10.50;78.30;;;;;;5004686;28;20054;-90
2022/03/27 01:00:39;;;;;;;24.58;12.40;;;11.10;80.20;;;;;;4989404;28;20030;-90
2022/03/27 01:03:13;;;;;;;17.42;10.57;;;10.50;78.80;;;;;;4977306;28;20244;-89
2022/03/27 01:05:43;;;;;;;19.98;10.38;;;10.40;79.20;;;;;;4994920;28;20014;-88
2022/03/27 01:08:10;;;;;;;22.20;10.55;;;10.40;79.70;;;;;;4978881;28;20034;-87
2022/03/27 01:10:37;;;;;;;23.33;11.20;;;10.40;80.10;;;;;;4980489;28;20661;-87
2022/03/27 01:13:19;;;;;;;22.98;10.73;;;12.50;82.10;;;;;;5004230;28;20037;-90
2022/03/27 01:15:56;;;;;;;22.35;11.02;;;11.20;81.50;;;;;;4999667;28;20046;-88
2022/03/27 01:18:22;;;;;;;22.80;10.07;;;11.90;82.10;;;;;;4982040;28;20034;-87
2022/03/27 01:20:48;;;;;;;23.63;10.95;;;9.70;81.60;;;;;;5000722;28;20034;-87
2022/03/27 01:23:15;;;;;;;22.45;11.20;;;12.80;83.80;;;;;;5002859;28;20027;-89
2022/03/27 01:25:44;;;;;;;21.20;10.52;;;10.20;82.60;;;;;;4981575;28;20042;-89
2022/03/27 01:28:12;;;;;;;21.38;10.43;;;11.80;84.10;;;;;;4984979;28;20030;-90
2022/03/27 01:30:39;;;;;;;22.45;11.15;;;12.40;86.40;;;;;;4979803;28;20420;-90
2022/03/27 01:33:09;;;;;;;22.05;10.90;;;10.10;85.90;;;;;;4974508;28;20376;-89
2022/03/27 01:35:35;;;;;;;27.63;12.05;;;9.90;85.10;;;;;;4978288;28;20026;-88
2022/03/27 01:38:01;;;;;;;23.95;12.07;;;10.00;85.80;;;;;;5012537;28;20040;-90
2022/03/27 01:40:27;;;;;;;22.38;12.18;;;9.80;86.30;;;;;;5014998;28;20117;-89
2022/03/27 01:42:55;;;;;;;21.55;11.23;;;12.80;89.20;;;;;;4979022;28;20045;-85
2022/03/27 01:45:24;;;;;;;21.05;11.38;;;10.10;88.00;;;;;;4995740;28;20026;-90
2022/03/27 01:47:50;;;;;;;23.40;10.73;;;;;;;;;;4993021;28;20066;-89
2022/03/27 01:50:16;;;;;;;19.45;10.45;;;;;;;;;;4987100;28;20137;-89
2022/03/27 01:52:42;;;;;;;28.48;11.85;;;;;;;;;;4975452;28;20034;-90
2022/03/27 01:55:12;;;;;;;24.77;10.93;;;9.50;90.40;;;;;;4988823;28;20033;-89
2022/03/27 01:57:39;;;;;;;21.88;11.35;;;;;;;;;;4992216;28;20388;-89
2022/03/27 02:00:07;;;;;;;22.05;11.52;;;9.50;90.90;;;;;;4989955;28;20049;-90
2022/03/27 02:02:32;;;;;;;23.50;10.75;;;9.50;91.40;;;;;;4992777;28;20365;-87
2022/03/27 02:04:58;;;;;;;21.92;11.23;;;11.00;91.80;;;;;;4970907;28;20226;-87
2022/03/27 02:07:24;;;;;;;24.98;12.05;;;;;;;;;;4986630;28;20472;-87
2022/03/27 02:09:53;;;;;;;17.65;11.07;;;9.50;91.80;;;;;;4986741;28;20554;-87
2022/03/27 02:12:18;;;;;;;21.60;11.52;;;9.40;91.80;;;;;;4987983;28;20121;-90
2022/03/27 02:14:44;;;;;;;26.17;11.95;;;;;;;;;;4973663;28;20054;-88
2022/03/27 02:17:10;;;;;;;22.77;10.55;;;;;;;;;;4972703;28;20555;-89
2022/03/27 02:19:36;;;;;;;22.70;10.63;;;9.40;92.50;;;;;;4989887;28;20117;-90
2022/03/27 02:22:03;;;;;;;19.77;10.07;;;9.30;93.20;;;;;;4971625;28;20345;-89
2022/03/27 02:24:29;;;;;;;23.02;11.43;;;;;;;;;;5006984;28;20093;-89
2022/03/27 02:26:57;;;;;;;18.65;10.73;;;;;;;;;;4989413;28;20362;-90
2022/03/27 02:29:23;;;;;;;18.60;10.25;;;;;;;;;;4970723;28;20615;-88
2022/03/27 02:31:49;;;;;;;21.33;10.73;;;;;;;;;;4970227;28;20038;-91
2022/03/27 02:34:15;;;;;;;22.13;10.52;;;9.10;94.50;;;;;;4974436;28;20061;-90
2022/03/27 02:36:41;;;;;;;18.52;10.43;;;;;;;;;;4990489;28;20045;-90
2022/03/27 02:39:07;;;;;;;20.52;10.27;;;;;;;;;;4988505;28;20094;-91
2022/03/27 02:41:33;;;;;;;19.92;10.68;;;;;;;;;;4991279;28;20050;-88
2022/03/27 02:43:59;;;;;;;17.50;10.65;;;;;;;;;;4971759;28;20671;-87
2022/03/27 02:46:25;;;;;;;19.65;10.15;;;;;;;;;;4992659;28;20364;-90
2022/03/27 02:48:51;;;;;;;23.17;11.20;;;;;;;;;;4971265;28;20035;-89
2022/03/27 02:51:17;;;;;;;19.05;10.60;;;;;;;;;;4979424;28;20080;-88
2022/03/27 02:53:43;;;;;;;22.50;11.23;;;;;;;;;;4978021;28;20042;-88
2022/03/27 02:56:09;;;;;;;23.95;10.30;;;9.10;96.40;;;;;;4989302;28;20038;-87
2022/03/27 02:58:35;;;;;;;20.17;10.75;;;9.10;96.90;;;;;;4961545;28;20038;-91
2022/03/27 03:01:01;;;;;;;19.42;10.98;;;;;;;;;;4970847;28;20268;-89
2022/03/27 03:03:28;;;;;;;18.90;10.98;;;;;;;;;;4973781;28;20038;-88
2022/03/27 03:05:55;;;;;;;23.10;10.13;;;9.10;97.10;;;;;;4977299;28;20244;-88
2022/03/27 03:08:21;;;;;;;21.10;10.68;;;;;;;;;;4976505;28;20026;-89
2022/03/27 03:10:47;;;;;;;21.67;10.23;;;;;;;;;;4991382;28;20057;-87
2022/03/27 03:13:13;;;;;;;18.83;10.55;;;;;;;;;;4956183;28;20084;-91
2022/03/27 03:15:44;;;;;;;21.85;10.25;;;9.00;97.60;;;;;;4959265;28;20071;-91
2022/03/27 03:18:10;;;;;;;17.45;10.02;;;;;;;;;;4957520;28;20202;-90
2022/03/27 03:20:38;;;;;;;20.35;10.35;;;9.00;98.00;;;;;;4977325;28;20569;-88
2022/03/27 03:23:04;;;;;;;18.83;9.68;;;9.40;98.60;;;;;;4961295;28;20030;-89
2022/03/27 03:25:30;;;;;;;19.33;10.35;;;8.00;98.30;;;;;;4979731;28;20100;-87
2022/03/27 03:27:56;;;;;;;19.63;10.00;;;;;;;;;;4976332;28;20031;-88
2022/03/27 03:30:23;;;;;;;20.30;10.02;;;8.80;98.80;;;;;;4977630;28;20522;-88
2022/03/27 03:32:49;;;;;;;18.80;8.82;;;8.80;99.30;;;;;;4980898;28;20101;-90
2022/03/27 03:35:15;;;;;;;19.65;10.27;;;;;;;;;;4983754;28;20156;-89
2022/03/27 03:37:41;;;;;;;17.98;10.13;;;;;;;;;;4978080;28;20038;-89
2022/03/27 03:40:08;;;;;;;21.80;10.52;;;8.70;99.80;;;;;;4974236;28;20138;-88
2022/03/27 03:42:40;;;;;;;18.17;10.23;;;8.60;99.90;;;;;;4958321;28;20452;-87
2022/03/27 03:45:06;;;;;;;18.60;10.05;;;11.10;99.90;;;;;;4976888;28;20032;-87
2022/03/27 03:47:32;;;;;;;18.40;9.82;;;8.60;99.90;;;;;;4973129;28;20030;-88
2022/03/27 03:49:58;;;;;;;21.85;10.27;;;;;;;;;;4954487;28;20053;-87
2022/03/27 03:52:25;;;;;;;19.92;10.15;;;;;;;;;;4954882;28;20202;-90
2022/03/27 03:54:51;;;;;;;20.75;10.13;;;;;;;;;;4971901;28;20121;-89
2022/03/27 03:57:17;;;;;;;17.92;10.45;;;8.60;99.90;;;;;;4954030;28;20089;-87
2022/03/27 03:59:43;;;;;;;18.80;9.98;;;;;;;;;;4956575;28;20403;-89
2022/03/27 04:02:14;;;;;;;17.90;10.30;;;8.50;99.90;;;;;;4973273;28;20042;-90
2022/03/27 04:04:40;;;;;;;26.40;11.13;;;;;;;;;;4956420;28;20092;-90
2022/03/27 04:07:06;;;;;;;18.98;9.93;;;;;;;;;;4976478;28;20645;-90
2022/03/27 04:09:32;;;;;;;21.65;10.63;;;;;;;;;;4974783;28;20030;-87
2022/03/27 04:11:58;;;;;;;16.75;9.73;;;;;;;;;;4971774;28;20081;-91
2022/03/27 04:14:24;;;;;;;16.35;9.73;;;;;;;;;;4957302;28;20038;-90
2022/03/27 04:16:50;;;;;;;20.50;9.75;;;;;;;;;;4991244;28;20076;-90
2022/03/27 04:19:17;;;;;;;20.52;11.30;;;;;;;;;;4954521;28;20042;-89
2022/03/27 04:21:43;;;;;;;20.20;10.10;;;;;;;;;;4955090;28;20042;-89
2022/03/27 04:24:09;;;;;;;18.08;10.15;;;;;;;;;;4975703;28;20038;-89
2022/03/27 04:26:35;;;;;;;23.88;11.38;;;;;;;;;;5002185;28;20042;-91
2022/03/27 04:29:02;;;;;;;18.55;10.10;;;8.60;99.90;;;;;;4977291;28;20045;-90
2022/03/27 04:31:29;;;;;;;21.52;10.10;;;;;;;;;;4979288;28;20455;-89
2022/03/27 04:33:55;;;;;;;18.92;10.13;;;;;;;;;;4996812;28;20026;-90
2022/03/27 04:36:22;;;;;;;17.42;10.30;;;;;;;;;;4997337;28;20030;-90
2022/03/27 04:38:48;;;;;;;16.92;9.73;;;;;;;;;;4997931;28;20093;-88
2022/03/27 04:41:14;;;;;;;21.08;9.75;;;;;;;;;;4998904;28;20084;-88
2022/03/27 04:43:40;;;;;;;19.05;10.10;;;;;;;;;;4998488;28;20054;-88
2022/03/27 04:46:07;;;;;;;20.00;10.32;;;;;;;;;;4991857;28;20022;-88
2022/03/27 04:48:34;;;;;;;17.50;10.02;;;;;;;;;;4996991;28;20030;-87
2022/03/27 04:51:00;;;;;;;20.35;10.10;;;8.80;99.90;;;;;;5001003;28;20153;-88
2022/03/27 04:53:26;;;;;;;18.15;9.85;;;;;;;;;;4991813;28;20582;-89
2022/03/27 04:55:53;;;;;;;16.77;9.13;;;;;;;;;;4984886;28;20283;-88
2022/03/27 04:58:19;;;;;;;18.20;9.80;;;;;;;;;;4985526;28;20496;-87
2022/03/27 05:00:45;;;;;;;19.23;10.77;;;;;;;;;;4971126;28;20038;-90
2022/03/27 05:03:11;;;;;;;17.27;9.55;;;;;;;;;;4971510;28;20034;-89
2022/03/27 05:05:38;;;;;;;19.73;9.98;;;;;;;;;;4988823;28;20028;-87
2022/03/27 05:08:04;;;;;;;18.42;10.27;;;;;;;;;;4992630;28;20050;-89
2022/03/27 05:10:30;;;;;;;17.83;9.75;;;;;;;;;;4970269;28;20368;-86
2022/03/27 05:12:56;;;;;;;19.15;10.40;;;;;;;;;;4992774;28;20034;-91
2022/03/27 05:15:22;;;;;;;19.30;10.10;;;;;;;;;;4996029;28;20038;-87
2022/03/27 05:17:58;;;;;;;17.70;9.88;;;8.60;99.90;;;;;;4998021;28;20057;-88
2022/03/27 05:20:25;;;;;;;17.20;9.85;;;8.60;99.90;;;;;;5005041;28;20419;-91
2022/03/27 05:22:51;;;;;;;15.80;9.45;;;;;;;;;;4997668;28;20034;-90
2022/03/27 05:25:18;;;;;;;18.25;10.00;;;;;;;;;;4994511;28;20050;-91
2022/03/27 05:27:53;;;;;;;17.25;9.75;;;8.80;99.90;;;;;;4996432;28;20027;-88
2022/03/27 05:30:23;;;;;;;17.20;10.05;;;8.80;99.90;;;;;;4994076;28;20036;-90
2022/03/27 05:32:50;;;;;;;21.20;10.43;;;8.70;99.90;;;;;;4977131;28;20042;-89
2022/03/27 05:35:17;;;;;;;21.23;10.73;;;;;;;;;;4978695;28;20034;-88
2022/03/27 05:37:44;;;;;;;18.77;10.15;;;8.80;99.90;;;;;;4995422;28;20098;-84
2022/03/27 05:40:13;;;;;;;17.25;9.60;;;8.80;99.90;;;;;;4988747;28;20030;-88
2022/03/27 05:42:39;;;;;;;19.38;10.13;;;;;;;;;;4985282;28;20062;-90
2022/03/27 05:45:07;;;;;;;22.55;9.95;;;9.00;99.90;;;;;;4998298;28;20026;-90
2022/03/27 05:47:33;;;;;;;18.95;10.00;;;;;;;;;;5000366;28;20467;-90
2022/03/27 05:50:00;;;;;;;20.05;9.95;;;9.10;99.90;;;;;;4997792;28;20022;-89
2022/03/27 05:52:27;;;;;;;16.92;10.10;;;11.40;99.90;;;;;;5002022;28;20038;-87
2022/03/27 05:54:53;;;;;;;21.65;10.32;;;;;;;;;;4992959;28;20034;-86
2022/03/27 05:57:19;;;;;;;15.93;9.48;;;;;;;;;;5010862;28;20376;-85
2022/03/27 05:59:48;;;;;;;18.23;10.20;;;9.30;99.90;;;;;;5020540;28;20030;-87
2022/03/27 06:02:14;;;;;;;17.85;9.65;;;9.20;99.90;;;;;;5020839;28;20038;-86
2022/03/27 06:04:41;;;;;;;23.27;11.05;;;12.00;99.90;;;;;;4991497;28;20026;-86
2022/03/27 06:07:07;;;;;;;20.13;10.52;;;;;;;;;;5017267;28;20058;-89
2022/03/27 06:09:33;;;;;;;19.25;9.77;;;;;;;;;;5000124;28;20081;-87
2022/03/27 06:12:00;;;;;;;19.65;11.10;;;;;;;;;;5019841;28;20023;-89
2022/03/27 06:14:26;;;;;;;17.33;10.00;;;;;;;;;;5001689;28;20030;-86
2022/03/27 06:16:52;;;;;;;20.92;10.32;;;;;;;;;;5021027;28;20030;-87
2022/03/27 06:19:18;;;;;;;16.45;9.38;;;;;;;;;;5005899;28;20037;-88
2022/03/27 06:21:45;;;;;;;17.13;9.70;;;;;;;;;;5017920;28;20022;-87
2022/03/27 06:24:12;;;;;;;21.00;9.85;;;;;;;;;;4985671;28;20053;-89
2022/03/27 06:26:38;;;;;;;16.65;10.07;;;;;;;;;;4995711;28;20022;-90
2022/03/27 06:29:04;;;;;;;17.77;10.30;;;;;;;;;;5002214;28;20022;-89
2022/03/27 06:31:30;;;;;;;16.77;9.57;;;;;;;;;;5004542;28;20030;-88
2022/03/27 06:33:56;;;;;;;17.58;9.55;;;;;;;;;;4992810;28;20508;-86
2022/03/27 06:36:23;;;;;;;17.83;9.70;;;10.10;99.90;;;;;;4988599;28;20033;-87
2022/03/27 06:38:48;;;;;;;17.17;9.95;;;10.20;99.90;;;;;;5007857;28;20387;-89
2022/03/27 06:41:17;;;;;;;15.35;9.45;;;10.50;99.90;;;;;;5116387;23;20080;-81
2022/03/27 06:43:44;;;;;;;18.80;9.73;;;;;;;;;;5018139;28;20494;-81
2022/03/27 06:46:15;;;;;;;19.77;10.30;;;;;;;;;;5036627;28;20105;-80
2022/03/27 06:48:41;;;;;;;16.73;10.35;;;;;;;;;;5019694;28;20048;-81
2022/03/27 06:51:07;;;;;;;16.48;9.48;;;;;;;;;;5022890;28;20025;-82
2022/03/27 06:53:33;;;;;;;21.30;10.40;;;;;;;;;;5009681;28;20095;-82
2022/03/27 06:56:00;;;;;;;19.05;9.90;;;;;;;;;;5017495;28;20052;-82
2022/03/27 06:58:29;;;;;;;16.58;10.23;;;10.80;99.90;;;;;;5021746;28;20060;-82
2022/03/27 07:03:42;;;;;;;16.48;9.73;;;;;;;;;;5039517;28;20117;-82
2022/03/27 07:06:08;;;;;;;15.98;9.98;;;;;;;;;;5039924;28;20049;-81
2022/03/27 07:08:34;;;;;;;17.52;10.20;;;11.20;99.40;;;;;;5024695;28;20482;-82
2022/03/27 07:11:00;;;;;;;16.30;9.38;;;;;;;;;;5020347;28;20128;-82
2022/03/27 07:13:27;;;;;;;17.75;9.75;;;;;;;;;;5038634;28;20021;-81
2022/03/27 07:15:53;;;;;;;16.52;10.20;;;;;;;;;;5035505;28;20111;-82
2022/03/27 07:18:20;;;;;;;18.75;9.88;;;11.70;97.90;;;;;;5035775;28;20029;-82
2022/03/27 07:20:46;;;;;;;17.30;10.32;;;12.00;97.40;;;;;;5022536;28;20013;-79
2022/03/27 07:23:16;;;;;;;16.95;10.80;;;14.80;99.70;;;;;;5020314;28;20021;-83
2022/03/27 07:25:45;;;;;;;18.10;9.85;;;14.00;98.10;;;;;;5037877;28;20083;-81
2022/03/27 07:28:12;;;;;;;18.10;11.10;;;12.30;96.60;;;;;;5025213;28;20034;-83
2022/03/27 07:30:49;;;;;;;15.05;9.40;;;10.80;96.60;;;;;;5019476;28;20025;-82
2022/03/27 07:33:17;;;;;;;18.42;11.07;;;11.40;96.50;;;;;;5028521;28;20541;-81
2022/03/27 07:35:45;;;;;;;19.73;10.52;;;12.50;95.40;;;;;;5045857;28;20025;-82
2022/03/27 07:38:11;;;;;;;15.13;9.73;;;;;;;;;;5028140;28;20022;-81
2022/03/27 07:40:38;;;;;;;20.08;10.73;;;13.00;94.80;;;;;;5023732;28;20068;-82
2022/03/27 07:43:04;;;;;;;17.20;9.38;;;;;;;;;;5028859;28;20026;-81
2022/03/27 07:45:31;;;;;;;18.73;10.00;;;13.10;94.00;;;;;;5030764;28;20417;-82
2022/03/27 07:47:57;;;;;;;18.13;10.07;;;;;;;;;;5045130;28;20018;-82
2022/03/27 07:50:25;;;;;;;19.20;10.95;;;13.10;93.60;;;;;;5040567;28;20037;-82
2022/03/27 07:52:51;;;;;;;17.05;10.18;;;;;;;;;;5035156;28;20029;-82
2022/03/27 07:55:20;;;;;;;17.48;10.38;;;13.50;92.50;;;;;;5024572;28;20029;-82
2022/03/27 07:57:46;;;;;;;18.58;9.75;;;;;;;;;;5045661;28;20100;-83
2022/03/27 08:00:14;;;;;;;16.02;10.25;;;13.70;91.60;;;;;;5028087;28;20033;-83
2022/03/27 08:02:41;;;;;;;19.40;10.32;;;13.80;90.90;;;;;;5035595;28;20033;-82
2022/03/27 08:05:08;;;;;;;17.27;10.15;;;14.10;91.50;;;;;;5030437;28;20017;-84
2022/03/27 08:07:38;;;;;;;16.60;9.60;;;14.00;90.70;;;;;;5042384;28;20045;-81
2022/03/27 08:10:05;;;;;;;17.42;9.50;;;14.00;91.10;;;;;;5031262;28;20017;-82
2022/03/27 08:12:32;;;;;;;17.52;10.00;;;;;;;;;;5022055;28;20397;-82
2022/03/27 08:14:58;;;;;;;18.38;10.77;;;;;;;;;;5040203;28;20029;-82
2022/03/27 08:17:24;;;;;;;18.90;10.35;;;14.40;88.80;;;;;;5050626;28;20029;-82
2022/03/27 08:19:51;;;;;;;16.30;10.27;;;;;;;;;;5044292;28;20032;-82
2022/03/27 08:22:19;;;;;;;17.10;9.95;;;14.60;86.30;;;;;;5038714;28;20710;-81
2022/03/27 08:24:45;;;;;;;17.55;10.02;;;14.80;86.30;;;;;;5031305;28;20022;-83
2022/03/27 08:27:14;;;;;;;22.30;11.35;;;14.80;86.60;;;;;;5046767;28;20025;-81
2022/03/27 08:29:41;;;;;;;15.50;9.60;;;14.90;83.70;;;;;;5026703;28;20026;-81
2022/03/27 08:32:09;;;;;;;17.10;9.63;;;15.00;82.70;;;;;;5022323;28;20103;-81
2022/03/27 08:34:45;;;;;;;16.05;10.15;;;15.00;83.30;;;;;;4993345;28;20087;-80
2022/03/27 08:37:16;;;;;;;16.27;9.75;;;15.30;81.30;;;;;;5006907;28;20033;-82
2022/03/27 08:39:45;;;;;;;17.52;10.13;;;15.30;81.80;;;;;;5025870;28;20029;-81
2022/03/27 08:42:16;;;;;;;17.67;10.13;;;15.60;80.30;;;;;;5020446;28;20045;-81
2022/03/27 08:44:43;;;;;;;17.95;9.85;;;;;;;;;;5022426;28;20028;-82
2022/03/27 08:47:21;;;;;;;18.30;9.48;;;15.50;78.50;;;;;;5017196;28;20030;-81
2022/03/27 08:49:53;;;;;;;17.20;9.50;;;;;;;;;;5010674;28;20034;-82
2022/03/27 08:52:21;;;;;;;20.00;9.98;;;;;;;;;;5024293;28;20034;-80
2022/03/27 08:55:06;;;;;;;16.85;9.52;;;15.90;76.50;;;;;;5027227;28;20483;-81
2022/03/27 08:57:42;;;;;;;15.27;9.60;;;;;;;;;;5014967;28;20100;-82
2022/03/27 09:00:08;;;;;;;15.10;9.38;;;;;;;;;;5038255;28;20046;-82
2022/03/27 09:02:35;;;;;;;15.90;9.48;;;;;;;;;;5018332;28;20122;-81
2022/03/27 09:05:03;;;;;;;18.45;8.95;;;;;;;;;;5014163;28;20075;-83
2022/03/27 09:07:30;;;;;;;16.75;9.80;;;;;;;;;;5017230;28;20033;-81
2022/03/27 09:10:05;;;;;;;15.68;9.30;;;16.50;72.50;;;;;;5017082;28;20032;-82
2022/03/27 09:12:33;;;;;;;16.40;9.40;;;16.60;72.10;;;;;;5016174;28;20033;-82
2022/03/27 09:14:59;;;;;;;16.08;8.98;;;;;;;;;;5017039;28;20033;-81
2022/03/27 09:17:26;;;;;;;17.67;9.40;;;;;;;;;;5035885;28;20116;-81
2022/03/27 09:19:52;;;;;;;17.27;9.10;;;;;;;;;;5027232;28;20026;-83
2022/03/27 09:22:33;;;;;;;15.20;8.45;;;17.00;70.50;;;;;;5031163;28;20034;-81
2022/03/27 09:25:02;;;;;;;16.35;7.85;;;17.10;68.10;;;;;;5050906;28;20093;-82
2022/03/27 09:27:38;;;;;;;16.77;8.95;;;17.30;67.50;;;;;;5054460;28;20026;-82
2022/03/27 09:30:11;;;;;;;15.73;8.75;;;17.30;66.10;;;;;;5042351;28;20057;-83
2022/03/27 09:32:42;;;;;;;15.07;8.27;;;17.30;66.00;;;;;;5040853;28;20051;-81
2022/03/27 09:35:12;;;;;;;17.70;8.98;;;17.30;67.60;;;;;;4993938;28;20040;-78
2022/03/27 09:37:58;;;;;;;;;;;18.40;68.30;;;;;;5017965;28;20099;-80
2022/03/27 09:40:39;;;;;;;14.23;8.48;;;17.30;65.30;;;;;;5035582;28;19909;-79
2022/03/27 09:43:18;;;;;;;14.32;8.68;;;17.40;65.50;;;;;;5035656;28;20513;-79
2022/03/27 09:46:01;;;;;;;16.58;8.45;;;17.60;65.20;;;;;;5051469;28;20486;-80
2022/03/27 09:48:36;;;;;;;17.23;8.48;;;17.50;65.50;;;;;;5038437;28;20112;-79
2022/03/27 09:51:04;;;;;;;16.27;8.63;;;;;;;;;;5050924;28;20029;-79
2022/03/27 09:54:16;;;;;;;16.80;8.50;;;18.00;64.50;;;;;;5052149;28;20057;-84
2022/03/27 09:57:17;;;;;;;17.23;8.25;;;17.20;64.40;;;;;;5054982;28;20021;-85
2022/03/27 09:59:47;;;;;;;14.63;8.07;;;18.30;62.80;;;;;;5028038;28;20041;-79
2022/03/27 10:02:26;;;;;;;14.32;8.43;;;18.40;62.20;;;;;;5019541;28;20029;-79
2022/03/27 10:04:52;;;;;;;13.40;7.82;;;;;;;;;;5039401;28;20021;-80
2022/03/27 10:07:25;;;;;;;16.67;8.80;;;18.50;61.70;;;;;;5037870;28;20053;-81
2022/03/27 10:10:00;;;;;;;16.02;8.07;;;18.50;62.70;;;;;;5038293;28;20033;-78
2022/03/27 10:12:31;;;;;;;13.23;7.70;;;18.60;61.60;;;;;;5059465;28;20013;-79
2022/03/27 10:15:00;;;;;;;13.10;8.05;;;18.70;61.50;;;;;;5050814;28;20045;-79
2022/03/27 10:17:30;;;;;;;14.57;7.85;;;18.70;63.00;;;;;;4987303;28;20045;-78
2022/03/27 10:20:17;;;;;;;12.60;7.38;;;18.80;62.30;;;;;;5036290;28;20124;-79
2022/03/27 10:22:52;;;;;;;14.82;7.70;;;19.00;58.80;;;;;;5033634;28;20033;-81
2022/03/27 10:25:23;;;;;;;14.00;8.15;;;19.60;61.40;;;;;;5014264;28;20053;-80
2022/03/27 10:27:54;;;;;;;14.90;8.07;;;19.20;58.50;;;;;;5033861;28;20018;-80
2022/03/27 10:30:24;;;;;;;15.85;8.65;;;19.20;59.00;;;;;;5013431;28;20049;-77
2022/03/27 10:32:54;;;;;;;;;;;19.10;60.50;;;;;;5012326;28;20393;-80
2022/03/27 10:35:49;;;;;;;13.35;7.22;;;19.20;60.50;;;;;;5016290;28;19909;-79
2022/03/27 10:38:55;;;;;;;14.73;7.80;;;19.30;57.20;;;;;;5030786;28;20104;-78
2022/03/27 10:41:43;;;;;;;14.13;6.82;;;19.30;57.70;;;;;;5034995;28;20065;-78
2022/03/27 10:44:38;;;;;;;14.50;7.90;;;19.40;57.20;;;;;;5015623;28;20392;-79
2022/03/27 10:47:16;;;;;;;13.57;6.78;;;19.60;55.60;;;;;;5014408;28;20021;-79
2022/03/27 10:50:08;;;;;;;15.38;6.32;;;19.60;55.80;;;;;;5029083;28;20046;-79
2022/03/27 10:53:02;;;;;;;10.95;6.10;;;19.40;56.40;;;;;;5033005;28;20568;-81
2022/03/27 10:55:46;;;;;;;11.77;6.50;;;19.90;52.80;;;;;;5027669;28;20041;-80
2022/03/27 10:58:39;;;;;;;12.00;6.60;;;19.90;53.60;;;;;;5032624;28;20495;-80
2022/03/27 11:01:30;;;;;;;11.80;6.32;;;20.00;53.50;;;;;;5014653;28;20436;-80
2022/03/27 11:04:14;;;;;;;12.93;6.40;;;17.90;51.50;;;;;;5020880;28;20041;-79
2022/03/27 11:06:46;;;;;;;12.65;6.93;;;19.70;53.20;;;;;;5015483;28;20391;-81
2022/03/27 11:09:30;;;;;;;14.85;6.43;;;19.80;53.00;;;;;;5015723;28;20072;-79
2022/03/27 11:11:57;;;;;;;10.95;6.53;;;;;;;;;;5014759;28;20517;-78
2022/03/27 11:14:54;;;;;;;10.35;5.68;;;19.80;51.30;;;;;;5033701;28;20448;-79
2022/03/27 11:17:34;;;;;;;9.27;5.40;;;19.60;51.70;;;;;;5029621;28;20041;-80
2022/03/27 11:20:01;;;;;;;10.80;5.65;;;19.90;50.90;;;;;;5013121;28;20556;-80
2022/03/27 11:22:58;;;;;;;9.95;5.65;;;20.10;50.70;;;;;;5029780;28;20103;-79
2022/03/27 11:25:28;;;;;;;9.20;5.10;;;20.10;51.60;;;;;;5016931;28;20045;-78
2022/03/27 11:28:07;;;;;;;11.63;6.07;;;19.40;50.70;;;;;;5031760;28;20022;-79
2022/03/27 11:30:54;;;;;;;12.13;6.28;;;20.20;50.60;;;;;;5038144;28;20025;-79
2022/03/27 11:33:31;;;;;;;12.00;5.82;;;20.60;49.70;;;;;;5018976;28;20382;-79
2022/03/27 11:36:09;;;;;;;11.02;5.85;;;19.40;51.00;;;;;;5030366;28;20014;-80
2022/03/27 11:38:52;;;;;;;10.15;5.30;;;20.50;48.50;;;;;;5017726;28;20566;-79
2022/03/27 11:41:27;;;;;;;10.15;4.95;;;20.50;48.50;;;;;;5045961;28;20029;-78
2022/03/27 11:43:57;;;;;;;10.80;4.75;;;20.60;49.30;;;;;;5030329;28;20064;-79
2022/03/27 11:46:29;;;;;;;11.35;6.22;;;20.80;48.60;;;;;;5028714;28;20056;-79
2022/03/27 11:49:23;;;;;;;13.07;7.32;;;20.20;48.70;;;;;;5038987;28;20030;-79
2022/03/27 11:52:08;;;;;;;13.95;5.30;;;20.80;49.40;;;;;;5038741;28;20029;-79
2022/03/27 11:54:36;;;;;;;10.73;5.28;;;21.00;48.40;;;;;;5020160;28;20436;-78
2022/03/27 11:57:03;;;;;;;10.70;5.40;;;20.80;47.60;;;;;;5018489;28;20022;-79
2022/03/27 11:59:31;;;;;;;9.45;5.22;;;;;;;;;;5033929;28;20052;-79
2022/03/27 12:02:01;;;;;;;9.73;5.72;;;20.60;48.80;;;;;;5032412;28;20013;-79
2022/03/27 12:04:28;;;;;;;10.38;5.13;;;;;;;;;;5033366;28;20018;-79
2022/03/27 12:06:55;;;;;;;10.93;5.47;;;20.80;48.00;;;;;;5018741;28;20073;-79
2022/03/27 12:09:29;;;;;;;10.73;5.00;;;20.80;48.30;;;;;;5037525;28;20069;-79
2022/03/27 12:12:10;;;;;;;9.55;5.65;;;20.80;48.50;;;;;;5033640;28;20025;-79
2022/03/27 12:14:57;;;;;;;13.02;5.78;;;20.90;49.20;;;;;;5042837;28;20044;-78
2022/03/27 12:17:35;;;;;;;10.48;4.78;;;21.10;47.60;;;;;;5026168;28;20030;-80
2022/03/27 12:20:18;;;;;;;7.25;4.35;;;20.40;48.30;;;;;;5036285;28;20022;-78
2022/03/27 12:22:50;;;;;;;9.50;4.53;;;21.10;45.00;;;;;;5033627;28;20079;-80
2022/03/27 12:25:28;;;;;;;10.55;4.57;;;21.00;45.00;;;;;;5036688;28;20026;-79
2022/03/27 12:30:55;;;;;;;8.45;4.20;;;21.10;44.60;;;;;;5039229;28;20076;-79
2022/03/27 12:33:27;;;;;;;8.30;4.15;;;20.90;45.00;;;;;;5013401;28;20041;-79
2022/03/27 12:36:16;;;;;;;7.95;4.07;;;21.20;42.20;;;;;;5014076;28;20056;-80
2022/03/27 12:39:24;;;;;;;8.88;4.35;;;21.30;43.00;;;;;;5030596;28;20041;-80
2022/03/27 12:46:55;;;;;;;8.27;3.80;;;;;;;;;;5014945;28;20049;-88
2022/03/27 12:49:22;;;;;;;7.50;3.97;;;;;;;;;;5017131;28;20128;-87
2022/03/27 12:51:57;;;;;;;7.35;4.10;;;21.50;43.00;;;;;;5031849;28;20061;-87
2022/03/27 12:54:24;;;;;;;9.25;4.22;;;;;;;;;;5011586;28;20057;-89
2022/03/27 12:56:57;;;;;;;9.63;4.25;;;21.60;43.60;;;;;;5014141;28;20023;-86
2022/03/27 12:59:23;;;;;;;7.68;3.85;;;;;;;;;;5009380;28;20034;-89
2022/03/27 13:01:50;;;;;;;7.20;3.90;;;21.60;41.60;;;;;;4993542;28;20387;-88
2022/03/27 13:04:16;;;;;;;6.93;4.18;;;;;;;;;;4998820;28;20061;-87
2022/03/27 13:06:52;;;;;;;7.53;3.65;;;21.80;41.80;;;;;;4998040;28;20031;-88
2022/03/27 13:09:22;;;;;;;7.75;3.83;;;21.90;42.60;;;;;;5030085;28;20030;-87
2022/03/27 13:11:48;;;;;;;8.98;4.15;;;21.90;41.20;;;;;;4995777;28;20026;-90
2022/03/27 13:14:15;;;;;;;12.32;3.60;;;;;;;;;;5001885;28;20046;-87
2022/03/27 13:16:41;;;;;;;6.97;3.60;;;22.00;40.80;;;;;;5018583;28;20026;-90
2022/03/27 13:19:24;;;;;;;9.95;3.70;;;22.10;41.30;;;;;;5016518;28;20027;-88
2022/03/27 13:21:57;;;;;;;8.13;3.90;;;22.20;41.60;;;;;;4999095;28;20029;-88
2022/03/27 13:24:25;;;;;;;6.53;3.60;;;22.20;41.50;;;;;;5000530;28;20049;-88
2022/03/27 13:26:54;;;;;;;10.18;3.50;;;22.20;42.10;;;;;;5001742;28;20030;-87
2022/03/27 13:29:21;;;;;;;6.47;3.92;;;22.60;43.20;;;;;;4997499;28;20049;-87
2022/03/27 13:31:48;;;;;;;8.32;3.72;;;22.10;39.60;;;;;;5016877;28;20065;-89
2022/03/27 13:34:16;;;;;;;6.10;3.35;;;22.10;41.60;;;;;;5004278;28;20089;-88
2022/03/27 13:36:49;;;;;;;7.80;3.83;;;22.10;39.50;;;;;;4998614;28;20023;-87
2022/03/27 13:39:16;;;;;;;6.43;3.38;;;;;;;;;;5000110;28;20033;-87
2022/03/27 13:44:28;;;;;;;6.07;3.45;;;21.80;40.20;;;;;;5004423;28;20065;-87